WINNIPESAUKEE R @ TILTON: From 09/04/2018 16:00 to 09/19/2018 02:00

Date STAGE [FT] FLOW [CFS] AIR TEMPERATURE [DEGF]
09/18/2018 22:00 2.60 295.0 69.3
09/18/2018 21:00 2.59 291.0 70.8
09/18/2018 20:00 2.59 291.0 73.6
09/18/2018 19:00 2.59 291.0 76.4
09/18/2018 18:00 2.59 291.0 77.9
09/18/2018 17:00 2.59 291.0 78.5
09/18/2018 16:00 2.59 291.0 77.6
09/18/2018 15:00 2.59 291.0 77.1
09/18/2018 14:00 2.59 291.0 74.7
09/18/2018 13:00 2.60 295.0 71.4
09/18/2018 12:00 2.61 298.0 68.9
09/18/2018 11:00 2.59 291.0 68.0
09/18/2018 10:00 2.59 291.0 68.0
09/18/2018 09:00 2.56 282.0 67.9
09/18/2018 08:00 2.53 272.0 68.0
09/18/2018 07:00 2.53 272.0 68.3
09/18/2018 06:00 2.53 272.0 68.5
09/18/2018 05:00 2.53 272.0 69.1
09/18/2018 04:00 2.52 269.0 68.5
09/18/2018 03:00 2.53 272.0 68.2
09/18/2018 02:00 2.52 269.0 68.1
09/18/2018 01:00 2.52 269.0 67.9
09/18/2018 00:00 2.53 272.0 66.9
09/17/2018 23:00 2.52 269.0 67.6
09/17/2018 22:00 2.52 269.0 68.3
09/17/2018 21:00 2.52 269.0 70.8
09/17/2018 20:00 2.51 266.0 72.5
09/17/2018 19:00 2.52 269.0 75.7
09/17/2018 18:00 2.51 266.0 78.6
09/17/2018 17:00 2.52 269.0 79.5
09/17/2018 16:00 2.52 269.0 82.0
09/17/2018 15:00 2.52 269.0 81.8
09/17/2018 14:00 2.52 269.0 80.9
09/17/2018 13:00 2.52 269.0 79.3
09/17/2018 12:00 2.52 269.0 76.2
09/17/2018 11:00 2.52 269.0 70.2
09/17/2018 10:00 2.52 269.0 66.5
09/17/2018 09:00 2.52 269.0 65.7
09/17/2018 08:00 2.52 269.0 64.4
09/17/2018 07:00 2.52 269.0 64.0
09/17/2018 06:00 2.52 269.0 64.1
09/17/2018 05:00 2.52 269.0 64.8
09/17/2018 04:00 2.52 269.0 65.3
09/17/2018 03:00 2.53 272.0 65.1
09/17/2018 02:00 2.53 272.0 66.3
09/17/2018 01:00 2.52 269.0 67.1
09/17/2018 00:00 2.52 269.0 68.4
09/16/2018 23:00 2.52 269.0 69.9
09/16/2018 22:00 2.53 272.0 71.3
09/16/2018 21:00 2.53 272.0 73.2
09/16/2018 20:00 2.53 272.0 75.7
09/16/2018 19:00 2.53 272.0 79.2
09/16/2018 18:00 2.53 272.0 81.1
09/16/2018 17:00 2.53 272.0 81.9
09/16/2018 16:00 2.53 272.0 83.6
09/16/2018 15:00 2.53 272.0 83.9
09/16/2018 14:00 2.53 272.0 83.6
09/16/2018 13:00 2.54 275.0 80.8
09/16/2018 12:00 2.53 272.0 77.4
09/16/2018 11:00 2.54 275.0 74.5
09/16/2018 10:00 2.54 275.0 67.9
09/16/2018 09:00 2.54 275.0 61.5
09/16/2018 08:00 2.54 275.0 60.0
09/16/2018 07:00 2.54 275.0 60.5
09/16/2018 06:00 2.54 275.0 61.1
09/16/2018 05:00 2.54 275.0 61.6
09/16/2018 04:00 2.55 279.0 61.9
09/16/2018 03:00 2.54 275.0 61.6
09/16/2018 02:00 2.55 279.0 61.4
09/16/2018 01:00 2.54 275.0 62.0
09/16/2018 00:00 2.54 275.0 63.3
09/15/2018 23:00 2.55 279.0 64.2
09/15/2018 22:00 2.54 275.0 65.6
09/15/2018 21:00 2.55 279.0 67.8
09/15/2018 20:00 2.55 279.0 71.3
09/15/2018 19:00 2.55 279.0 75.2
09/15/2018 18:00 2.56 282.0 76.8
09/15/2018 17:00 2.56 282.0 77.7
09/15/2018 16:00 2.55 279.0 77.1
09/15/2018 15:00 2.56 282.0 75.5
09/15/2018 14:00 2.56 282.0 73.0
09/15/2018 13:00 2.56 282.0 71.8
09/15/2018 12:00 2.56 282.0 66.0
09/15/2018 11:00 2.56 282.0 64.5
09/15/2018 10:00 2.57 285.0 63.7
09/15/2018 09:00 2.57 285.0 63.6
09/15/2018 08:00 2.57 285.0 63.3
09/15/2018 07:00 2.57 285.0 63.0
09/15/2018 06:00 2.57 285.0 62.5
09/15/2018 05:00 2.57 285.0 62.0
09/15/2018 04:00 2.57 285.0 61.8
09/15/2018 03:00 2.57 285.0 61.6
09/15/2018 02:00 2.58 288.0 60.9
09/15/2018 01:00 2.57 285.0 59.7
09/15/2018 00:00 2.57 285.0 60.3
09/14/2018 23:00 2.57 285.0 61.7
09/14/2018 22:00 2.57 285.0 63.0
09/14/2018 21:00 2.58 288.0 65.3
09/14/2018 20:00 2.58 288.0 69.0
09/14/2018 19:00 2.59 291.0 71.2
09/14/2018 18:00 2.59 291.0 74.7
09/14/2018 17:00 2.59 291.0 76.8
09/14/2018 16:00 2.59 291.0 76.1
09/14/2018 15:00 2.60 295.0 75.5
09/14/2018 14:00 2.60 295.0 73.6
09/14/2018 13:00 2.60 295.0 70.1
09/14/2018 12:00 2.60 295.0 64.8
09/14/2018 11:00 2.61 298.0 63.4
09/14/2018 10:00 2.61 298.0 61.5
09/14/2018 09:00 2.61 298.0 60.9
09/14/2018 08:00 2.61 298.0 60.2
09/14/2018 07:00 2.62 301.0 60.6
09/14/2018 06:00 2.62 301.0 61.2
09/14/2018 05:00 2.63 305.0 61.8
09/14/2018 04:00 2.63 305.0 61.7
09/14/2018 03:00 2.63 305.0 61.0
09/14/2018 02:00 2.64 308.0 60.7
09/14/2018 01:00 2.62 301.0 61.8
09/14/2018 00:00 2.63 305.0 61.8
09/13/2018 23:00 2.63 305.0 63.5
09/13/2018 22:00 2.63 305.0 65.5
09/13/2018 21:00 2.64 308.0 67.6
09/13/2018 20:00 2.64 308.0 70.7
09/13/2018 19:00 2.66 315.0 73.9
09/13/2018 18:00 2.67 319.0 75.2
09/13/2018 17:00 2.67 319.0 74.2
09/13/2018 16:00 2.67 319.0 74.8
09/13/2018 15:00 2.67 319.0 73.4
09/13/2018 14:00 2.68 322.0 72.1
09/13/2018 13:00 2.69 325.0 70.7
09/13/2018 12:00 2.69 325.0 68.3
09/13/2018 11:00 2.69 325.0 67.2
09/13/2018 10:00 2.71 332.0 65.0
09/13/2018 09:00 2.71 332.0 63.8
09/13/2018 08:00 2.72 336.0 62.9
09/13/2018 07:00 2.72 336.0 63.0
09/13/2018 06:00 2.73 339.0 62.8
09/13/2018 05:00 2.73 339.0 63.1
09/13/2018 04:00 2.73 339.0 63.1
09/13/2018 03:00 2.74 342.0 63.2
09/13/2018 02:00 2.75 346.0 63.5
09/13/2018 01:00 2.73 339.0 64.4
09/13/2018 00:00 2.73 339.0 64.5
09/12/2018 23:00 2.73 339.0 64.7
09/12/2018 22:00 2.74 342.0 65.2
09/12/2018 21:00 2.75 346.0 65.6
09/12/2018 20:00 2.75 346.0 66.1
09/12/2018 19:00 2.79 360.0 66.7
09/12/2018 18:00 2.80 363.0 66.6
09/12/2018 17:00 2.81 366.0 66.0
09/12/2018 16:00 2.81 366.0 66.1
09/12/2018 15:00 2.82 370.0 66.2
09/12/2018 14:00 2.82 370.0 65.4
09/12/2018 13:00 2.83 373.0 64.6
09/12/2018 12:00 2.83 373.0 64.6
09/12/2018 11:00 2.82 370.0 64.9
09/12/2018 10:00 2.82 370.0 65.1
09/12/2018 09:00 2.82 370.0 64.3
09/12/2018 08:00 2.82 370.0 64.3
09/12/2018 07:00 2.82 370.0 64.3
09/12/2018 06:00 2.82 370.0 64.4
09/12/2018 05:00 2.81 366.0 64.4
09/12/2018 04:00 2.81 366.0 64.5
09/12/2018 03:00 2.81 366.0 64.6
09/12/2018 02:00 2.80 363.0 64.7
09/12/2018 01:00 2.82 370.0 64.8
09/12/2018 00:00 2.81 366.0 65.1
09/11/2018 23:00 2.81 366.0 65.3
09/11/2018 22:00 2.81 366.0 65.5
09/11/2018 21:00 2.80 363.0 65.9
09/11/2018 20:00 2.79 360.0 66.6
09/11/2018 19:00 2.76 349.0 67.5
09/11/2018 18:00 2.75 346.0 67.8
09/11/2018 17:00 2.75 346.0 67.0
09/11/2018 16:00 2.77 353.0 67.0
09/11/2018 15:00 2.74 342.0 66.3
09/11/2018 14:00 2.73 339.0 63.8
09/11/2018 13:00 2.72 336.0 62.1
09/11/2018 12:00 2.71 332.0 61.0
09/11/2018 11:00 2.70 329.0 60.4
09/11/2018 10:00 2.70 329.0 59.1
09/11/2018 09:00 2.69 325.0 58.7
09/11/2018 08:00 2.70 329.0 58.2
09/11/2018 07:00 2.72 336.0 58.3
09/11/2018 06:00 2.73 339.0 58.6
09/11/2018 05:00 2.68 322.0 58.6
09/11/2018 04:00 2.66 315.0 58.0
09/11/2018 03:00 2.65 312.0 57.6
09/11/2018 02:00 2.59 291.0 57.3
09/11/2018 01:00 2.73 339.0 57.6
09/11/2018 00:00 2.68 322.0 57.7
09/10/2018 23:00 2.66 315.0 57.5
09/10/2018 22:00 2.65 312.0 57.3
09/10/2018 21:00 2.59 291.0 57.4
09/10/2018 20:00 2.54 275.0 57.6
09/10/2018 19:00 2.48 257.0 58.1
09/10/2018 18:00 2.47 254.0 58.7
09/10/2018 17:00 2.51 266.0 60.8
09/10/2018 16:00 2.47 254.0 61.1
09/10/2018 15:00 2.47 254.0 61.0
09/10/2018 14:00 2.48 257.0 60.0
09/10/2018 13:00 2.47 254.0 58.7
09/10/2018 12:00 2.47 254.0 56.5
09/10/2018 11:00 2.47 254.0 52.9
09/10/2018 10:00 2.47 254.0 50.0
09/10/2018 09:00 2.47 254.0 46.8
09/10/2018 08:00 2.47 254.0 46.3
09/10/2018 07:00 2.47 254.0 46.1
09/10/2018 06:00 2.47 254.0 46.2
09/10/2018 05:00 2.47 254.0 46.0
09/10/2018 04:00 2.47 254.0 45.2
09/10/2018 03:00 2.47 254.0 45.9
09/10/2018 02:00 2.47 254.0 46.4
09/10/2018 01:00 2.47 254.0 47.4
09/10/2018 00:00 2.47 254.0 48.1
09/09/2018 23:00 2.47 254.0 49.2
09/09/2018 22:00 2.47 254.0 50.9
09/09/2018 21:00 2.47 254.0 53.5
09/09/2018 20:00 2.47 254.0 56.2
09/09/2018 19:00 2.47 254.0 59.8
09/09/2018 18:00 2.47 254.0 60.2
09/09/2018 17:00 2.47 254.0 60.4
09/09/2018 16:00 2.47 254.0 60.3
09/09/2018 15:00 2.47 254.0 59.7
09/09/2018 14:00 2.47 254.0 59.0
09/09/2018 13:00 2.47 254.0 59.5
09/09/2018 12:00 2.47 254.0 57.7
09/09/2018 11:00 2.47 254.0 55.6
09/09/2018 10:00 2.47 254.0 52.8
09/09/2018 09:00 2.47 254.0 47.3
09/09/2018 08:00 2.47 254.0 44.2
09/09/2018 07:00 2.47 254.0 44.1
09/09/2018 06:00 2.47 254.0 44.5
09/09/2018 05:00 2.48 254.0 45.3
09/09/2018 04:00 2.47 254.0 45.9
09/09/2018 03:00 2.47 254.0 47.2
09/09/2018 02:00 2.48 254.0 49.3
09/09/2018 01:00 2.47 254.0 49.6
09/09/2018 00:00 2.48 257.0 49.8
09/08/2018 23:00 2.47 254.0 50.0
09/08/2018 22:00 2.47 254.0 50.2
09/08/2018 21:00 2.48 257.0 50.4
09/08/2018 20:00 2.48 257.0 50.6
09/08/2018 19:00 2.47 254.0 50.9
09/08/2018 18:00 2.48 257.0 51.1
09/08/2018 17:00 2.47 254.0 51.3
09/08/2018 16:00 2.48 257.0 51.5
09/08/2018 15:00 2.48 257.0 51.7
09/08/2018 14:00 2.47 254.0 51.9
09/08/2018 13:00 2.47 254.0 52.1
09/08/2018 12:00 2.47 254.0 52.3
09/08/2018 11:00 2.48 257.0 52.5
09/08/2018 10:00 2.48 257.0 52.8
09/08/2018 09:00 2.48 257.0 53.0
09/08/2018 08:00 2.48 257.0 53.2
09/08/2018 07:00 2.48 257.0 53.4
09/08/2018 06:00 2.48 257.0 53.6
09/08/2018 05:00 2.48 257.0 53.8
09/08/2018 04:00 2.49 260.0 54.0
09/08/2018 03:00 2.49 260.0 54.2
09/08/2018 02:00 2.49 260.0 54.4
09/08/2018 01:00 2.49 260.0 54.6
09/08/2018 00:00 2.48 257.0 54.9
09/07/2018 23:00 2.49 260.0 55.1
09/07/2018 22:00 2.49 260.0 55.3
09/07/2018 21:00 2.49 260.0 55.5
09/07/2018 20:00 2.48 257.0 55.7
09/07/2018 19:00 2.49 260.0 55.9
09/07/2018 18:00 2.49 260.0 56.1
09/07/2018 17:00 2.48 257.0 56.3
09/07/2018 16:00 2.49 260.0 56.5
09/07/2018 15:00 2.48 257.0 56.7
09/07/2018 14:00 2.48 257.0 57.0
09/07/2018 13:00 2.48 257.0 57.2
09/07/2018 12:00 2.49 260.0 57.4
09/07/2018 11:00 2.49 260.0 57.6
09/07/2018 10:00 2.49 260.0 57.8
09/07/2018 09:00 2.49 260.0 58.0
09/07/2018 08:00 2.50 263.0 57.4
09/07/2018 07:00 2.50 263.0 57.6
09/07/2018 06:00 2.50 263.0 57.7
09/07/2018 05:00 2.50 263.0 58.5
09/07/2018 04:00 2.50 263.0 59.2
09/07/2018 03:00 2.50 263.0 60.9
09/07/2018 02:00 2.50 263.0 63.5
09/07/2018 01:00 2.51 266.0 65.3
09/07/2018 00:00 2.50 263.0 66.7
09/06/2018 23:00 2.51 266.0 68.5
09/06/2018 22:00 2.51 266.0 69.7
09/06/2018 21:00 2.51 266.0 70.9
09/06/2018 20:00 2.51 266.0 74.8
09/06/2018 19:00 2.51 266.0 76.6
09/06/2018 18:00 2.51 266.0 75.9
09/06/2018 17:00 2.52 269.0 74.6
09/06/2018 16:00 2.52 269.0 74.9
09/06/2018 15:00 2.51 266.0 75.4
09/06/2018 14:00 2.51 266.0 76.2
09/06/2018 13:00 2.48 257.0 89.6
09/06/2018 12:00 2.48 257.0 88.4
09/06/2018 11:00 2.48 257.0 87.3
09/06/2018 10:00 2.48 257.0 84.3
09/06/2018 09:00 2.48 257.0 78.2
09/06/2018 08:00 2.49 260.0 71.1
09/06/2018 07:00 2.49 260.0 71.1
09/06/2018 06:00 2.49 260.0 72.3
09/06/2018 05:00 2.49 260.0 72.6
09/06/2018 04:00 2.49 260.0 72.3
09/06/2018 03:00 2.49 260.0 71.7
09/06/2018 02:00 2.49 260.0 71.8
09/06/2018 01:00 2.49 260.0 72.8
09/06/2018 00:00 2.49 260.0 73.7
09/05/2018 23:00 2.49 260.0 74.7
09/05/2018 22:00 2.49 260.0 75.9
09/05/2018 21:00 2.49 260.0 78.7
09/05/2018 20:00 2.49 260.0 82.3
09/05/2018 19:00 2.48 257.0 85.3
09/05/2018 18:00 2.48 257.0 86.6
09/05/2018 17:00 2.48 257.0 86.7
09/05/2018 16:00 2.48 257.0 85.8
09/05/2018 15:00 2.48 257.0 85.6
09/05/2018 14:00 2.48 257.0 83.1
09/05/2018 13:00 2.48 257.0 80.7
09/05/2018 12:00 2.48 257.0 78.2
09/05/2018 11:00 2.49 260.0 75.7
09/05/2018 10:00 2.49 260.0 75.9
09/05/2018 09:00 2.49 260.0 73.2
09/05/2018 08:00 2.49 260.0 70.4
09/05/2018 07:00 2.49 260.0 67.7
09/05/2018 06:00 2.49 260.0 64.9
09/05/2018 05:00 2.49 260.0 62.2
09/05/2018 04:00 2.49 260.0 62.3
09/05/2018 03:00 2.49 260.0 63.3
09/05/2018 02:00 2.49 260.0 63.4
09/05/2018 01:00 2.49 260.0 64.9
09/05/2018 00:00 2.49 260.0 66.0
09/04/2018 23:00 2.49 260.0 67.4
09/04/2018 22:00 -- -- --
09/04/2018 21:00 -- -- --
09/04/2018 20:00 -- -- --
09/04/2018 19:00 -- -- --
09/04/2018 18:00 -- -- --
09/04/2018 17:00 -- -- --
09/04/2018 16:00 -- -- --